createdAt,value
2022-11-07T06:41:41.652Z,0.20
2022-11-07T06:44:08.282Z,0.52
2022-11-07T06:46:34.960Z,0.38
2022-11-07T06:49:01.721Z,0.55
2022-11-07T06:51:28.777Z,0.20
2022-11-07T06:53:55.892Z,0.30
2022-11-07T06:56:22.511Z,0.32
2022-11-07T06:58:49.565Z,0.30
2022-11-07T07:01:16.515Z,0.38
2022-11-07T07:03:44.198Z,0.40
2022-11-07T07:06:13.759Z,0.28
2022-11-07T07:08:40.852Z,0.30
2022-11-07T07:11:10.429Z,0.35
2022-11-07T07:13:37.872Z,0.40
2022-11-07T07:16:05.227Z,0.38
2022-11-07T07:18:32.556Z,0.50
2022-11-07T07:21:07.058Z,0.50
2022-11-07T07:23:34.907Z,0.50
2022-11-07T07:26:03.025Z,0.30
2022-11-07T07:28:29.872Z,0.60
2022-11-07T07:31:29.177Z,0.40
2022-11-07T07:33:56.297Z,0.50
2022-11-07T07:36:23.677Z,0.50
2022-11-07T07:38:55.148Z,0.35
2022-11-07T07:41:22.250Z,0.40
2022-11-07T07:43:48.931Z,0.50
2022-11-07T07:46:22.315Z,1.02
2022-11-07T07:48:49.164Z,0.73
2022-11-07T07:51:15.784Z,0.73
2022-11-07T07:53:42.829Z,0.75
2022-11-07T07:56:09.950Z,1.08
2022-11-07T07:58:36.629Z,0.40
2022-11-07T08:01:10.006Z,0.70
2022-11-07T08:03:59.604Z,0.50
2022-11-07T08:06:24.573Z,0.70
2022-11-07T08:08:51.175Z,0.50
2022-11-07T08:11:17.766Z,0.50
2022-11-07T08:13:44.836Z,0.28
2022-11-07T08:16:11.851Z,0.20
2022-11-07T08:18:41.443Z,0.38
2022-11-07T08:21:08.608Z,0.45
2022-11-07T08:23:36.459Z,0.70
2022-11-07T08:26:04.553Z,0.90
2022-11-07T08:28:35.316Z,0.50
2022-11-07T08:31:08.577Z,0.57
2022-11-07T08:33:36.207Z,0.65
2022-11-07T08:36:04.018Z,0.32
2022-11-07T08:38:32.391Z,0.30
2022-11-07T08:40:59.124Z,0.30
2022-11-07T08:43:26.373Z,0.20
2022-11-07T08:45:54.128Z,0.43
2022-11-07T08:48:21.941Z,0.80
2022-11-07T08:50:53.315Z,0.60
2022-11-07T08:53:20.338Z,0.50
2022-11-07T08:55:47.683Z,0.40
2022-11-07T08:58:15.144Z,0.43
2022-11-07T09:00:42.465Z,0.40
2022-11-07T09:03:44.268Z,0.30
2022-11-07T09:05:58.437Z,0.40
2022-11-07T09:08:25.608Z,0.30
2022-11-07T09:10:52.252Z,0.30
2022-11-07T09:13:20.782Z,0.15
2022-11-07T09:15:51.090Z,0.30
2022-11-07T09:18:19.421Z,0.30
2022-11-07T09:20:46.201Z,0.30
2022-11-07T09:23:12.909Z,0.20
2022-11-07T09:25:40.076Z,0.20
2022-11-07T09:28:07.131Z,0.20
2022-11-07T09:30:33.799Z,0.22
2022-11-07T09:33:00.932Z,0.20
2022-11-07T09:35:28.324Z,0.20
2022-11-07T09:37:55.495Z,0.32
2022-11-07T09:40:52.467Z,0.20
2022-11-07T09:43:28.724Z,0.10
2022-11-07T09:46:07.088Z,0.30
2022-11-07T09:48:44.806Z,0.20
2022-11-07T09:51:15.722Z,0.20
2022-11-07T09:53:46.949Z,2.55
2022-11-07T09:56:15.581Z,0.90
2022-11-07T09:58:43.519Z,0.30
2022-11-07T10:01:16.667Z,0.20
2022-11-07T10:04:10.260Z,0.15
2022-11-07T10:06:39.106Z,0.40
2022-11-07T10:09:23.185Z,0.40
2022-11-07T10:12:20.747Z,0.20
2022-11-07T10:14:54.963Z,0.38
2022-11-07T10:17:32.414Z,0.20
2022-11-07T10:20:12.579Z,0.10
2022-11-07T10:22:57.165Z,0.20
2022-11-07T10:25:40.908Z,0.20
2022-11-07T10:28:07.932Z,0.20
2022-11-07T10:30:35.838Z,0.10
2022-11-07T10:33:26.177Z,0.20
2022-11-07T10:35:56.905Z,0.20
2022-11-07T10:38:26.386Z,0.22
2022-11-07T10:40:53.276Z,0.20
2022-11-07T10:43:29.844Z,0.10
2022-11-07T10:45:57.480Z,0.15
2022-11-07T10:48:25.729Z,0.20
2022-11-07T10:50:53.812Z,0.20
2022-11-07T10:53:22.934Z,0.20
2022-11-07T10:55:51.037Z,0.15
2022-11-07T10:58:22.390Z,0.10
2022-11-07T11:01:09.947Z,0.10
2022-11-07T11:03:44.727Z,0.20
2022-11-07T11:06:26.674Z,0.10
2022-11-07T11:08:53.479Z,0.20
2022-11-07T11:11:29.809Z,0.10
2022-11-07T11:14:04.644Z,0.10
2022-11-07T11:16:34.355Z,0.10
2022-11-07T11:19:02.273Z,0.10
2022-11-07T11:21:55.461Z,0.10
2022-11-07T11:24:30.721Z,0.10
2022-11-07T11:27:03.292Z,0.20
2022-11-07T11:29:39.132Z,0.20
2022-11-07T11:32:08.939Z,0.10
2022-11-07T11:34:57.517Z,0.20
2022-11-07T11:37:27.181Z,0.20
2022-11-07T11:40:08.571Z,0.20
2022-11-07T11:42:54.415Z,0.10
2022-11-07T11:45:39.156Z,0.17
2022-11-07T11:48:10.935Z,0.20
2022-11-07T11:50:45.663Z,0.03
2022-11-07T11:53:16.982Z,0.10
2022-11-07T11:56:17.552Z,0.15
2022-11-07T11:58:50.228Z,0.20
2022-11-07T12:01:17.267Z,0.00
2022-11-07T12:03:44.333Z,0.40
2022-11-07T12:06:16.129Z,0.20
2022-11-07T12:08:55.440Z,0.10
2022-11-07T12:11:38.067Z,0.10
2022-11-07T12:14:13.938Z,0.20
2022-11-07T12:17:04.904Z,0.25
2022-11-07T12:19:57.980Z,0.10
2022-11-07T12:22:52.565Z,0.20
2022-11-07T12:25:24.251Z,0.10
2022-11-07T12:27:57.358Z,0.10
2022-11-07T12:30:27.368Z,0.17
2022-11-07T12:33:06.426Z,0.20
2022-11-07T12:36:11.842Z,0.20
2022-11-07T12:39:02.056Z,0.20
2022-11-07T12:41:54.152Z,0.20
2022-11-07T12:44:49.968Z,0.25
2022-11-07T12:47:27.892Z,0.20
2022-11-07T12:50:21.645Z,0.20
2022-11-07T12:53:01.456Z,0.20
2022-11-07T12:55:40.620Z,0.20
2022-11-07T12:58:13.399Z,0.30
2022-11-07T13:00:40.742Z,0.20
2022-11-07T13:03:15.201Z,0.20
2022-11-07T13:05:51.558Z,0.30
2022-11-07T13:08:52.008Z,0.20
2022-11-07T13:11:31.204Z,0.17
2022-11-07T13:14:30.041Z,0.10
2022-11-07T13:17:09.108Z,0.20
2022-11-07T13:19:37.332Z,0.28
2022-11-07T13:22:08.663Z,0.20
2022-11-07T13:24:38.573Z,0.22
2022-11-07T13:27:15.665Z,0.30
2022-11-07T13:29:45.096Z,0.20
2022-11-07T13:32:13.998Z,0.22
2022-11-07T13:35:00.414Z,0.30
2022-11-07T13:37:34.568Z,0.20
2022-11-07T13:40:26.780Z,0.30
2022-11-07T13:43:03.033Z,0.13
2022-11-07T13:45:32.793Z,0.20
2022-11-07T13:48:01.681Z,0.20
2022-11-07T13:50:37.880Z,0.20
2022-11-07T13:53:13.276Z,0.30
2022-11-07T13:56:00.232Z,0.20
2022-11-07T13:58:28.960Z,0.40
2022-11-07T14:00:55.713Z,0.20
2022-11-07T14:03:29.334Z,0.17
2022-11-07T14:05:57.144Z,0.10
2022-11-07T14:08:28.785Z,0.10
2022-11-07T14:10:55.704Z,0.20
2022-11-07T14:13:27.058Z,0.10
2022-11-07T14:15:55.684Z,0.30
2022-11-07T14:18:25.461Z,0.20
2022-11-07T14:20:56.721Z,0.30
2022-11-07T14:23:25.883Z,0.30
2022-11-07T14:26:01.397Z,0.15
2022-11-07T14:28:35.780Z,0.20
2022-11-07T14:31:03.632Z,0.13
2022-11-07T14:33:30.355Z,0.30
2022-11-07T14:35:57.480Z,1.00
2022-11-07T14:38:25.610Z,1.30
2022-11-07T14:40:56.252Z,0.90
2022-11-07T14:43:24.884Z,0.65
2022-11-07T14:46:11.982Z,0.50
2022-11-07T14:48:41.496Z,0.30
2022-11-07T14:51:13.240Z,0.60
2022-11-07T14:53:55.144Z,0.40
2022-11-07T14:56:25.589Z,0.50
2022-11-07T14:58:52.841Z,0.55
2022-11-07T15:01:29.841Z,1.05
2022-11-07T15:04:01.774Z,1.13
2022-11-07T15:06:34.760Z,1.65
2022-11-07T15:09:06.811Z,0.90
2022-11-07T15:11:35.314Z,0.70
2022-11-07T15:14:05.329Z,0.68
2022-11-07T15:16:34.687Z,0.63
2022-11-07T15:19:02.787Z,0.40
2022-11-07T15:21:34.259Z,0.30
2022-11-07T15:24:02.165Z,0.30
2022-11-07T15:26:34.710Z,0.40
2022-11-07T15:29:21.642Z,0.93
2022-11-07T15:31:49.086Z,1.65
2022-11-07T15:34:33.725Z,2.03
2022-11-07T15:37:10.529Z,0.63
2022-11-07T15:39:37.174Z,0.43
2022-11-07T15:42:03.984Z,0.60
2022-11-07T15:44:30.604Z,1.27
2022-11-07T15:46:57.408Z,1.80
2022-11-07T15:49:24.471Z,1.30
2022-11-07T15:51:51.498Z,1.23
2022-11-07T15:54:18.724Z,1.10
2022-11-07T15:56:46.709Z,0.68
2022-11-07T15:59:22.098Z,0.80
2022-11-07T16:01:49.084Z,1.13
2022-11-07T16:04:15.843Z,1.23
2022-11-07T16:06:46.070Z,1.00
2022-11-07T16:09:17.556Z,0.73
2022-11-07T16:11:45.056Z,0.80
2022-11-07T16:14:42.749Z,1.77
2022-11-07T16:17:07.168Z,2.35
2022-11-07T16:19:34.187Z,1.88
2022-11-07T16:22:00.791Z,1.48
2022-11-07T16:24:39.611Z,1.33
2022-11-07T16:27:06.291Z,1.20
2022-11-07T16:29:33.170Z,0.90
2022-11-07T16:32:00.270Z,0.90
2022-11-07T16:34:27.318Z,0.80
2022-11-07T16:36:54.377Z,0.93
2022-11-07T16:39:23.031Z,0.93
2022-11-07T16:41:52.966Z,1.10
2022-11-07T16:44:26.030Z,1.20
2022-11-07T16:46:55.280Z,1.13
2022-11-07T16:49:25.599Z,1.38
2022-11-07T16:51:52.659Z,1.67
2022-11-07T16:54:19.696Z,1.35
2022-11-07T16:56:52.901Z,0.90
2022-11-07T16:59:22.000Z,1.48
2022-11-07T17:01:50.404Z,1.40
2022-11-07T17:04:17.643Z,1.08
2022-11-07T17:06:47.433Z,0.90
2022-11-07T17:09:20.446Z,1.00
2022-11-07T17:11:47.695Z,0.77
2022-11-07T17:14:14.613Z,0.70
2022-11-07T17:16:47.109Z,0.85
2022-11-07T17:19:15.338Z,1.00
2022-11-07T17:21:46.257Z,1.27
2022-11-07T17:24:13.720Z,1.10
2022-11-07T17:26:40.915Z,1.40
2022-11-07T17:29:08.971Z,2.83
2022-11-07T17:31:35.779Z,3.95
2022-11-07T17:34:02.871Z,5.20
2022-11-07T17:36:37.530Z,7.28
2022-11-07T17:39:11.905Z,7.70
2022-11-07T17:41:40.363Z,6.22
2022-11-07T17:44:07.576Z,5.57
2022-11-07T17:46:35.776Z,3.95
2022-11-07T17:49:04.926Z,2.85
2022-11-07T17:51:31.643Z,3.25
2022-11-07T17:53:59.012Z,3.08
2022-11-07T17:56:27.277Z,3.05
2022-11-07T17:58:58.563Z,3.42
2022-11-07T18:01:26.994Z,3.60
2022-11-07T18:03:54.583Z,3.53
2022-11-07T18:06:23.520Z,2.63
2022-11-07T18:08:52.601Z,2.63
2022-11-07T18:11:20.796Z,2.30
2022-11-07T18:13:50.537Z,2.42
2022-11-07T18:16:19.618Z,1.60
2022-11-07T18:18:46.239Z,1.30
2022-11-07T18:21:13.307Z,1.15
2022-11-07T18:23:40.990Z,1.20
2022-11-07T18:26:20.583Z,1.17
2022-11-07T18:28:49.388Z,1.83
2022-11-07T18:31:18.706Z,1.63
2022-11-07T18:33:45.475Z,2.72
2022-11-07T18:36:14.199Z,1.30
2022-11-07T18:38:41.303Z,2.03
2022-11-07T18:41:12.063Z,2.13
2022-11-07T18:43:39.019Z,1.90
2022-11-07T18:46:10.292Z,1.73
2022-11-07T18:48:38.255Z,2.50
2022-11-07T18:51:11.360Z,3.45
2022-11-07T18:53:38.735Z,3.20
2022-11-07T18:56:07.589Z,3.05
2022-11-07T18:58:36.410Z,1.92
2022-11-07T19:01:20.393Z,2.42
2022-11-07T19:03:47.376Z,2.65
2022-11-07T19:06:16.068Z,2.50
2022-11-07T19:08:44.430Z,2.42
2022-11-07T19:11:13.416Z,3.20
2022-11-07T19:13:42.112Z,2.90
2022-11-07T19:16:10.372Z,2.35
2022-11-07T19:18:37.531Z,1.67
2022-11-07T19:21:04.754Z,1.50
2022-11-07T19:23:32.422Z,1.00
2022-11-07T19:25:59.494Z,0.90
2022-11-07T19:28:26.644Z,0.90
2022-11-07T19:30:53.824Z,1.00
